EWG115 EKVG-BIKF
Flight info
| Callsign | EWG115 |
|---|---|
| Flight time | 1h 24m |
| Altitude | 24000 |
| Route | MY DCT NASBU NASBU5N |
| Aircraft | DH8D/M-SDE2E3FGRY/H |
Departure
| Time | 2026-05-06 08:51 |
|---|---|
| Airport | Vágar Airport (EKVG) |
Arrival
| Time | 2026-05-06 10:16 |
|---|---|
| Airport | Keflavik International Airport (BIKF) |
| Time | Latitude | Longitude | Altitude | Speed | Heading |
|---|---|---|---|---|---|
| 2026-05-06 08:36 | 62.06703 | -7.28021 | 297 ft | 0 kts | 74° |
| 2026-05-06 08:37 | 62.06703 | -7.28022 | 297 ft | 0 kts | 74° |
| 2026-05-06 08:37 | 62.06703 | -7.28021 | 297 ft | 0 kts | 74° |
| 2026-05-06 08:47 | 62.06707 | -7.27987 | 297 ft | 4 kts | 86° |
| 2026-05-06 08:47 | 62.06674 | -7.27963 | 297 ft | 8 kts | 218° |
| 2026-05-06 08:47 | 62.06620 | -7.28055 | 297 ft | 11 kts | 206° |
| 2026-05-06 08:48 | 62.06533 | -7.28099 | 297 ft | 14 kts | 203° |
| 2026-05-06 08:48 | 62.06445 | -7.28063 | 297 ft | 15 kts | 126° |
| 2026-05-06 08:48 | 62.06389 | -7.27847 | 297 ft | 17 kts | 118° |
| 2026-05-06 08:48 | 62.06330 | -7.27609 | 297 ft | 18 kts | 118° |
| 2026-05-06 08:49 | 62.06267 | -7.27357 | 297 ft | 19 kts | 117° |
| 2026-05-06 08:49 | 62.06202 | -7.27093 | 297 ft | 20 kts | 117° |
| 2026-05-06 08:49 | 62.06134 | -7.26821 | 297 ft | 21 kts | 118° |
| 2026-05-06 08:49 | 62.06064 | -7.26539 | 297 ft | 21 kts | 118° |
| 2026-05-06 08:50 | 62.05994 | -7.26258 | 297 ft | 21 kts | 118° |
| 2026-05-06 08:50 | 62.05928 | -7.26032 | 297 ft | 12 kts | 136° |
| 2026-05-06 08:50 | 62.05940 | -7.26018 | 297 ft | 9 kts | 282° |
| 2026-05-06 08:50 | 62.05946 | -7.26061 | 297 ft | 0 kts | 296° |
| 2026-05-06 08:51 | 62.06046 | -7.26469 | 297 ft | 75 kts | 298° |
| 2026-05-06 08:51 | 62.06397 | -7.27881 | 298 ft | 135 kts | 299° |
| 2026-05-06 08:51 | 62.06867 | -7.29826 | 532 ft | 154 kts | 296° |
| 2026-05-06 08:51 | 62.07333 | -7.31891 | 1104 ft | 162 kts | 297° |
| 2026-05-06 08:52 | 62.07774 | -7.34208 | 1552 ft | 174 kts | 292° |
| 2026-05-06 08:52 | 62.08141 | -7.36623 | 2226 ft | 174 kts | 291° |
| 2026-05-06 08:52 | 62.08523 | -7.39128 | 2788 ft | 181 kts | 291° |
| 2026-05-06 08:52 | 62.08845 | -7.41747 | 3329 ft | 190 kts | 288° |
| 2026-05-06 08:53 | 62.09147 | -7.44521 | 3870 ft | 198 kts | 287° |
| 2026-05-06 08:53 | 62.09462 | -7.47432 | 4412 ft | 206 kts | 287° |
| 2026-05-06 08:53 | 62.09792 | -7.50472 | 4953 ft | 214 kts | 287° |
| 2026-05-06 08:53 | 62.10133 | -7.53603 | 5486 ft | 222 kts | 287° |
| 2026-05-06 08:54 | 62.10484 | -7.56836 | 6019 ft | 230 kts | 287° |
| 2026-05-06 08:54 | 62.10936 | -7.60120 | 6550 ft | 235 kts | 295° |
| 2026-05-06 08:54 | 62.11571 | -7.63361 | 7069 ft | 242 kts | 297° |
| 2026-05-06 08:54 | 62.12245 | -7.66720 | 7445 ft | 250 kts | 296° |
| 2026-05-06 08:55 | 62.12938 | -7.70176 | 7807 ft | 256 kts | 295° |
| 2026-05-06 08:55 | 62.13643 | -7.73701 | 8165 ft | 261 kts | 295° |
| 2026-05-06 08:55 | 62.14331 | -7.77161 | 8833 ft | 254 kts | 295° |
| 2026-05-06 08:55 | 62.15025 | -7.80658 | 9318 ft | 256 kts | 295° |
| 2026-05-06 08:56 | 62.15721 | -7.84150 | 9649 ft | 263 kts | 295° |
| 2026-05-06 08:56 | 62.16449 | -7.87815 | 9987 ft | 269 kts | 295° |
| 2026-05-06 08:56 | 62.17184 | -7.91521 | 10313 ft | 274 kts | 295° |
| 2026-05-06 08:56 | 62.17929 | -7.95292 | 10641 ft | 278 kts | 295° |
| 2026-05-06 08:57 | 62.18683 | -7.99119 | 10967 ft | 282 kts | 295° |
| 2026-05-06 08:57 | 62.19445 | -8.02994 | 11292 ft | 286 kts | 295° |
| 2026-05-06 08:57 | 62.20212 | -8.06903 | 11615 ft | 288 kts | 295° |
| 2026-05-06 08:57 | 62.20993 | -8.10892 | 11941 ft | 291 kts | 295° |
| 2026-05-06 08:58 | 62.21772 | -8.14877 | 12263 ft | 293 kts | 295° |
| 2026-05-06 08:58 | 62.22552 | -8.18877 | 12587 ft | 295 kts | 295° |
| 2026-05-06 08:58 | 62.23347 | -8.22959 | 12912 ft | 297 kts | 294° |
| 2026-05-06 08:58 | 62.24141 | -8.27043 | 13236 ft | 298 kts | 294° |
| 2026-05-06 08:59 | 62.24933 | -8.31125 | 13562 ft | 300 kts | 294° |
| 2026-05-06 08:59 | 62.25733 | -8.35257 | 13888 ft | 301 kts | 294° |
| 2026-05-06 08:59 | 62.26534 | -8.39401 | 14213 ft | 302 kts | 294° |
| 2026-05-06 08:59 | 62.27329 | -8.43522 | 14533 ft | 303 kts | 294° |
| 2026-05-06 09:00 | 62.28139 | -8.47732 | 14860 ft | 304 kts | 294° |
| 2026-05-06 09:00 | 62.28944 | -8.51920 | 15182 ft | 305 kts | 294° |
| 2026-05-06 09:00 | 62.29745 | -8.56097 | 15501 ft | 306 kts | 294° |
| 2026-05-06 09:00 | 62.30558 | -8.60343 | 15824 ft | 307 kts | 294° |
| 2026-05-06 09:01 | 62.31356 | -8.64525 | 16141 ft | 308 kts | 294° |
| 2026-05-06 09:01 | 62.32166 | -8.68776 | 16455 ft | 309 kts | 293° |
| 2026-05-06 09:01 | 62.32981 | -8.73062 | 16784 ft | 309 kts | 294° |
| 2026-05-06 09:01 | 62.33798 | -8.77366 | 17108 ft | 309 kts | 294° |
| 2026-05-06 09:02 | 62.34598 | -8.81599 | 17428 ft | 309 kts | 294° |
| 2026-05-06 09:02 | 62.35401 | -8.85846 | 17738 ft | 308 kts | 293° |
| 2026-05-06 09:02 | 62.36212 | -8.90151 | 18061 ft | 307 kts | 293° |
| 2026-05-06 09:02 | 62.37001 | -8.94346 | 18374 ft | 306 kts | 293° |
| 2026-05-06 09:03 | 62.37796 | -8.98580 | 18687 ft | 305 kts | 293° |
| 2026-05-06 09:03 | 62.38583 | -9.02780 | 19006 ft | 304 kts | 293° |
| 2026-05-06 09:03 | 62.39375 | -9.07016 | 19318 ft | 302 kts | 293° |
| 2026-05-06 09:03 | 62.40146 | -9.11151 | 19635 ft | 301 kts | 293° |
| 2026-05-06 09:04 | 62.40923 | -9.15327 | 19941 ft | 300 kts | 293° |
| 2026-05-06 09:04 | 62.41702 | -9.19518 | 20015 ft | 306 kts | 294° |
| 2026-05-06 09:04 | 62.42502 | -9.23827 | 20030 ft | 312 kts | 294° |
| 2026-05-06 09:04 | 62.43305 | -9.28163 | 20036 ft | 316 kts | 294° |
| 2026-05-06 09:05 | 62.44118 | -9.32568 | 20043 ft | 319 kts | 294° |
| 2026-05-06 09:05 | 62.44946 | -9.37076 | 20049 ft | 322 kts | 294° |
| 2026-05-06 09:05 | 62.45771 | -9.41570 | 20055 ft | 325 kts | 294° |
| 2026-05-06 09:05 | 62.46603 | -9.46120 | 20062 ft | 326 kts | 294° |
| 2026-05-06 09:06 | 62.47427 | -9.50633 | 20060 ft | 328 kts | 294° |
| 2026-05-06 09:06 | 62.48270 | -9.55259 | 20052 ft | 329 kts | 294° |
| 2026-05-06 09:06 | 62.49097 | -9.59814 | 20052 ft | 330 kts | 294° |
| 2026-05-06 09:06 | 62.49937 | -9.64443 | 20047 ft | 330 kts | 294° |
| 2026-05-06 09:07 | 62.50774 | -9.69073 | 20053 ft | 331 kts | 293° |
| 2026-05-06 09:07 | 62.51598 | -9.73639 | 20061 ft | 331 kts | 293° |
| 2026-05-06 09:07 | 62.52441 | -9.78316 | 20063 ft | 332 kts | 293° |
| 2026-05-06 09:07 | 62.53270 | -9.82933 | 20061 ft | 332 kts | 293° |
| 2026-05-06 09:08 | 62.54105 | -9.87593 | 20061 ft | 333 kts | 293° |
| 2026-05-06 09:08 | 62.54943 | -9.92276 | 20054 ft | 333 kts | 293° |
| 2026-05-06 09:08 | 62.55774 | -9.96929 | 20053 ft | 333 kts | 293° |
| 2026-05-06 09:08 | 62.56600 | -10.01571 | 20057 ft | 333 kts | 293° |
| 2026-05-06 09:09 | 62.57431 | -10.06252 | 20067 ft | 334 kts | 293° |
| 2026-05-06 09:09 | 62.58273 | -10.11000 | 20072 ft | 335 kts | 293° |
| 2026-05-06 09:09 | 62.59098 | -10.15667 | 20067 ft | 336 kts | 293° |
| 2026-05-06 09:09 | 62.59934 | -10.20412 | 20061 ft | 336 kts | 294° |
| 2026-05-06 09:10 | 62.60757 | -10.25094 | 20064 ft | 336 kts | 293° |
| 2026-05-06 09:10 | 62.61597 | -10.29876 | 20066 ft | 336 kts | 293° |
| 2026-05-06 09:10 | 62.62419 | -10.34573 | 20073 ft | 337 kts | 293° |
| 2026-05-06 09:10 | 62.63247 | -10.39320 | 20072 ft | 337 kts | 293° |
| 2026-05-06 09:11 | 62.64071 | -10.44050 | 20071 ft | 338 kts | 293° |
| 2026-05-06 09:11 | 62.64906 | -10.48857 | 20064 ft | 338 kts | 293° |
| 2026-05-06 09:11 | 62.65729 | -10.53608 | 20062 ft | 339 kts | 293° |
| 2026-05-06 09:11 | 62.66547 | -10.58344 | 20065 ft | 338 kts | 293° |
| 2026-05-06 09:12 | 62.67376 | -10.63148 | 20079 ft | 339 kts | 293° |
| 2026-05-06 09:12 | 62.68200 | -10.67945 | 20078 ft | 340 kts | 292° |
| 2026-05-06 09:12 | 62.69031 | -10.72788 | 20075 ft | 341 kts | 292° |
| 2026-05-06 09:12 | 62.69855 | -10.77607 | 20075 ft | 341 kts | 292° |
| 2026-05-06 09:13 | 62.70677 | -10.82422 | 20075 ft | 341 kts | 292° |
| 2026-05-06 09:13 | 62.71493 | -10.87222 | 20073 ft | 341 kts | 292° |
| 2026-05-06 09:13 | 62.72318 | -10.92077 | 20075 ft | 341 kts | 292° |
| 2026-05-06 09:13 | 62.73134 | -10.96897 | 20081 ft | 341 kts | 292° |
| 2026-05-06 09:14 | 62.73950 | -11.01730 | 20081 ft | 342 kts | 292° |
| 2026-05-06 09:14 | 62.74774 | -11.06621 | 20084 ft | 342 kts | 292° |
| 2026-05-06 09:14 | 62.75590 | -11.11482 | 20068 ft | 342 kts | 292° |
| 2026-05-06 09:14 | 62.76398 | -11.16300 | 20070 ft | 343 kts | 292° |
| 2026-05-06 09:15 | 62.77219 | -11.21211 | 20068 ft | 343 kts | 292° |
| 2026-05-06 09:15 | 62.78026 | -11.26053 | 20079 ft | 343 kts | 292° |
| 2026-05-06 09:15 | 62.78842 | -11.30962 | 20081 ft | 344 kts | 291° |
| 2026-05-06 09:15 | 62.79648 | -11.35822 | 20080 ft | 344 kts | 291° |
| 2026-05-06 09:16 | 62.80463 | -11.40749 | 20076 ft | 345 kts | 291° |
| 2026-05-06 09:16 | 62.81267 | -11.45624 | 20067 ft | 344 kts | 292° |
| 2026-05-06 09:16 | 62.82078 | -11.50554 | 20077 ft | 345 kts | 292° |
| 2026-05-06 09:16 | 62.82891 | -11.55508 | 20078 ft | 345 kts | 292° |
| 2026-05-06 09:17 | 62.83696 | -11.60431 | 20088 ft | 345 kts | 291° |
| 2026-05-06 09:17 | 62.84505 | -11.65388 | 20084 ft | 346 kts | 291° |
| 2026-05-06 09:17 | 62.85303 | -11.70291 | 20078 ft | 346 kts | 291° |
| 2026-05-06 09:17 | 62.86110 | -11.75266 | 20077 ft | 346 kts | 291° |
| 2026-05-06 09:18 | 62.86906 | -11.80182 | 20073 ft | 346 kts | 291° |
| 2026-05-06 09:18 | 62.87710 | -11.85161 | 20074 ft | 346 kts | 290° |
| 2026-05-06 09:18 | 62.88502 | -11.90084 | 20086 ft | 346 kts | 290° |
| 2026-05-06 09:18 | 62.89305 | -11.95088 | 20087 ft | 347 kts | 290° |
| 2026-05-06 09:19 | 62.90099 | -12.00042 | 20086 ft | 347 kts | 290° |
| 2026-05-06 09:19 | 62.90900 | -12.05063 | 20085 ft | 348 kts | 290° |
| 2026-05-06 09:19 | 62.91694 | -12.10044 | 20085 ft | 348 kts | 290° |
| 2026-05-06 09:19 | 62.92487 | -12.15037 | 20083 ft | 348 kts | 290° |
| 2026-05-06 09:20 | 62.93274 | -12.20008 | 20089 ft | 348 kts | 290° |
| 2026-05-06 09:20 | 62.94069 | -12.25039 | 20099 ft | 349 kts | 290° |
| 2026-05-06 09:20 | 62.94864 | -12.30087 | 20096 ft | 349 kts | 290° |
| 2026-05-06 09:20 | 62.95648 | -12.35081 | 20093 ft | 349 kts | 290° |
| 2026-05-06 09:21 | 62.96429 | -12.40075 | 20096 ft | 349 kts | 290° |
| 2026-05-06 09:21 | 62.97217 | -12.45120 | 20099 ft | 349 kts | 290° |
| 2026-05-06 09:21 | 62.97994 | -12.50110 | 20098 ft | 349 kts | 290° |
| 2026-05-06 09:21 | 62.98780 | -12.55171 | 20097 ft | 349 kts | 290° |
| 2026-05-06 09:22 | 62.99563 | -12.60227 | 20094 ft | 348 kts | 290° |
| 2026-05-06 09:22 | 63.00331 | -12.65203 | 20101 ft | 349 kts | 290° |
| 2026-05-06 09:22 | 63.01111 | -12.70268 | 20111 ft | 350 kts | 290° |
| 2026-05-06 09:22 | 63.01888 | -12.75333 | 20103 ft | 350 kts | 290° |
| 2026-05-06 09:23 | 63.02663 | -12.80395 | 20105 ft | 350 kts | 290° |
| 2026-05-06 09:23 | 63.03427 | -12.85398 | 20114 ft | 350 kts | 290° |
| 2026-05-06 09:23 | 63.04208 | -12.90525 | 20116 ft | 350 kts | 290° |
| 2026-05-06 09:23 | 63.04973 | -12.95568 | 20115 ft | 349 kts | 289° |
| 2026-05-06 09:24 | 63.05736 | -13.00609 | 20112 ft | 348 kts | 289° |
| 2026-05-06 09:24 | 63.06502 | -13.05685 | 20114 ft | 346 kts | 289° |
| 2026-05-06 09:24 | 63.07247 | -13.10642 | 20115 ft | 346 kts | 289° |
| 2026-05-06 09:24 | 63.08000 | -13.15656 | 20109 ft | 344 kts | 289° |
| 2026-05-06 09:25 | 63.08747 | -13.20651 | 20114 ft | 344 kts | 290° |
| 2026-05-06 09:25 | 63.09494 | -13.25650 | 20117 ft | 344 kts | 290° |
| 2026-05-06 09:25 | 63.10241 | -13.30671 | 20117 ft | 344 kts | 290° |
| 2026-05-06 09:25 | 63.10982 | -13.35665 | 20115 ft | 344 kts | 290° |
| 2026-05-06 09:26 | 63.11722 | -13.40666 | 20123 ft | 345 kts | 290° |
| 2026-05-06 09:26 | 63.12469 | -13.45729 | 20115 ft | 345 kts | 290° |
| 2026-05-06 09:26 | 63.13203 | -13.50718 | 20119 ft | 345 kts | 290° |
| 2026-05-06 09:26 | 63.13943 | -13.55763 | 20118 ft | 345 kts | 290° |
| 2026-05-06 09:27 | 63.14673 | -13.60761 | 20114 ft | 345 kts | 290° |
| 2026-05-06 09:27 | 63.15405 | -13.65783 | 20121 ft | 345 kts | 289° |
| 2026-05-06 09:27 | 63.16135 | -13.70803 | 20124 ft | 345 kts | 289° |
| 2026-05-06 09:27 | 63.16862 | -13.75818 | 20126 ft | 346 kts | 289° |
| 2026-05-06 09:28 | 63.17601 | -13.80931 | 20127 ft | 346 kts | 289° |
| 2026-05-06 09:28 | 63.18328 | -13.85980 | 20126 ft | 346 kts | 289° |
| 2026-05-06 09:28 | 63.19056 | -13.91049 | 20130 ft | 347 kts | 289° |
| 2026-05-06 09:28 | 63.19781 | -13.96112 | 20126 ft | 347 kts | 289° |
| 2026-05-06 09:29 | 63.20503 | -14.01168 | 20123 ft | 347 kts | 289° |
| 2026-05-06 09:29 | 63.21225 | -14.06240 | 20117 ft | 346 kts | 289° |
| 2026-05-06 09:29 | 63.21946 | -14.11323 | 20119 ft | 346 kts | 289° |
| 2026-05-06 09:29 | 63.22661 | -14.16374 | 20131 ft | 347 kts | 289° |
| 2026-05-06 09:30 | 63.23378 | -14.21453 | 20122 ft | 346 kts | 289° |
| 2026-05-06 09:30 | 63.24097 | -14.26574 | 20125 ft | 347 kts | 289° |
| 2026-05-06 09:30 | 63.24808 | -14.31642 | 20122 ft | 347 kts | 289° |
| 2026-05-06 09:30 | 63.25524 | -14.36762 | 20119 ft | 347 kts | 289° |
| 2026-05-06 09:31 | 63.26232 | -14.41845 | 20122 ft | 347 kts | 289° |
| 2026-05-06 09:31 | 63.26934 | -14.46900 | 20126 ft | 347 kts | 289° |
| 2026-05-06 09:31 | 63.27649 | -14.52054 | 20131 ft | 348 kts | 289° |
| 2026-05-06 09:31 | 63.28350 | -14.57130 | 20132 ft | 348 kts | 289° |
| 2026-05-06 09:32 | 63.29061 | -14.62298 | 20129 ft | 348 kts | 289° |
| 2026-05-06 09:32 | 63.29766 | -14.67437 | 20133 ft | 348 kts | 288° |
| 2026-05-06 09:32 | 63.30460 | -14.72510 | 20129 ft | 348 kts | 288° |
| 2026-05-06 09:32 | 63.31168 | -14.77699 | 20134 ft | 349 kts | 288° |
| 2026-05-06 09:33 | 63.31864 | -14.82824 | 20133 ft | 349 kts | 288° |
| 2026-05-06 09:33 | 63.32556 | -14.87930 | 20129 ft | 349 kts | 288° |
| 2026-05-06 09:33 | 63.33252 | -14.93079 | 20131 ft | 349 kts | 288° |
| 2026-05-06 09:33 | 63.33952 | -14.98279 | 20128 ft | 349 kts | 288° |
| 2026-05-06 09:34 | 63.34643 | -15.03425 | 20136 ft | 349 kts | 289° |
| 2026-05-06 09:34 | 63.35329 | -15.08553 | 20148 ft | 349 kts | 288° |
| 2026-05-06 09:34 | 63.36024 | -15.13766 | 20133 ft | 348 kts | 289° |
| 2026-05-06 09:34 | 63.36706 | -15.18893 | 20139 ft | 348 kts | 288° |
| 2026-05-06 09:35 | 63.37387 | -15.24032 | 20137 ft | 348 kts | 288° |
| 2026-05-06 09:35 | 63.38074 | -15.29228 | 20142 ft | 349 kts | 289° |
| 2026-05-06 09:35 | 63.38752 | -15.34379 | 20140 ft | 349 kts | 289° |
| 2026-05-06 09:35 | 63.39435 | -15.39584 | 20130 ft | 349 kts | 289° |
| 2026-05-06 09:36 | 63.40109 | -15.44731 | 20138 ft | 349 kts | 289° |
| 2026-05-06 09:36 | 63.40781 | -15.49888 | 20140 ft | 349 kts | 289° |
| 2026-05-06 09:36 | 63.41458 | -15.55092 | 20146 ft | 350 kts | 289° |
| 2026-05-06 09:36 | 63.42129 | -15.60266 | 20149 ft | 349 kts | 289° |
| 2026-05-06 09:37 | 63.42798 | -15.65451 | 20142 ft | 349 kts | 288° |
| 2026-05-06 09:37 | 63.43467 | -15.70649 | 20144 ft | 348 kts | 288° |
| 2026-05-06 09:37 | 63.44134 | -15.75847 | 20144 ft | 348 kts | 288° |
| 2026-05-06 09:37 | 63.44799 | -15.81047 | 20141 ft | 348 kts | 288° |
| 2026-05-06 09:38 | 63.45451 | -15.86164 | 20142 ft | 348 kts | 288° |
| 2026-05-06 09:38 | 63.46108 | -15.91338 | 20144 ft | 347 kts | 288° |
| 2026-05-06 09:38 | 63.46765 | -15.96521 | 20145 ft | 347 kts | 288° |
| 2026-05-06 09:38 | 63.47422 | -16.01728 | 20147 ft | 347 kts | 288° |
| 2026-05-06 09:39 | 63.48072 | -16.06893 | 20144 ft | 347 kts | 288° |
| 2026-05-06 09:39 | 63.48728 | -16.12127 | 20145 ft | 347 kts | 288° |
| 2026-05-06 09:39 | 63.49372 | -16.17274 | 20153 ft | 348 kts | 288° |
| 2026-05-06 09:39 | 63.50017 | -16.22453 | 20158 ft | 348 kts | 288° |
| 2026-05-06 09:40 | 63.50660 | -16.27635 | 20146 ft | 347 kts | 288° |
| 2026-05-06 09:40 | 63.51310 | -16.32890 | 20161 ft | 348 kts | 288° |
| 2026-05-06 09:40 | 63.52583 | -16.43232 | 20161 ft | 348 kts | 288° |
| 2026-05-06 09:41 | 63.53225 | -16.48469 | 20159 ft | 348 kts | 288° |
| 2026-05-06 09:41 | 63.53862 | -16.53689 | 20159 ft | 348 kts | 288° |
| 2026-05-06 09:41 | 63.54498 | -16.58919 | 20162 ft | 348 kts | 288° |
| 2026-05-06 09:41 | 63.55133 | -16.64164 | 20165 ft | 349 kts | 288° |
| 2026-05-06 09:42 | 63.55763 | -16.69377 | 20169 ft | 349 kts | 287° |
| 2026-05-06 09:42 | 63.56392 | -16.74607 | 20158 ft | 349 kts | 287° |
| 2026-05-06 09:42 | 63.57021 | -16.79847 | 20160 ft | 349 kts | 288° |
| 2026-05-06 09:42 | 63.57650 | -16.85108 | 20168 ft | 349 kts | 287° |
| 2026-05-06 09:43 | 63.58272 | -16.90333 | 20172 ft | 349 kts | 288° |
| 2026-05-06 09:43 | 63.58894 | -16.95574 | 20176 ft | 350 kts | 288° |
| 2026-05-06 09:43 | 63.59522 | -17.00876 | 20167 ft | 349 kts | 287° |
| 2026-05-06 09:43 | 63.60140 | -17.06127 | 20165 ft | 349 kts | 287° |
| 2026-05-06 09:44 | 63.60758 | -17.11384 | 20174 ft | 350 kts | 287° |
| 2026-05-06 09:44 | 63.61369 | -17.16612 | 20165 ft | 350 kts | 287° |
| 2026-05-06 09:44 | 63.61987 | -17.21909 | 20168 ft | 351 kts | 288° |
| 2026-05-06 09:44 | 63.62602 | -17.27203 | 20170 ft | 351 kts | 287° |
| 2026-05-06 09:45 | 63.63217 | -17.32511 | 20165 ft | 351 kts | 288° |
| 2026-05-06 09:45 | 63.63823 | -17.37763 | 20175 ft | 351 kts | 287° |
| 2026-05-06 09:45 | 63.64434 | -17.43085 | 20181 ft | 351 kts | 287° |
| 2026-05-06 09:45 | 63.65033 | -17.48316 | 20168 ft | 350 kts | 288° |
| 2026-05-06 09:46 | 63.65642 | -17.53649 | 20185 ft | 351 kts | 287° |
| 2026-05-06 09:46 | 63.66241 | -17.58918 | 20177 ft | 351 kts | 288° |
| 2026-05-06 09:46 | 63.66844 | -17.64239 | 20173 ft | 352 kts | 287° |
| 2026-05-06 09:46 | 63.67450 | -17.69608 | 20167 ft | 352 kts | 287° |
| 2026-05-06 09:47 | 63.68043 | -17.74878 | 20168 ft | 352 kts | 287° |
| 2026-05-06 09:47 | 63.68639 | -17.80197 | 20173 ft | 352 kts | 287° |
| 2026-05-06 09:47 | 63.69236 | -17.85545 | 20174 ft | 352 kts | 287° |
| 2026-05-06 09:47 | 63.69830 | -17.90895 | 20166 ft | 352 kts | 287° |
| 2026-05-06 09:48 | 63.70425 | -17.96264 | 20165 ft | 353 kts | 287° |
| 2026-05-06 09:48 | 63.71010 | -18.01561 | 20171 ft | 353 kts | 287° |
| 2026-05-06 09:48 | 63.71601 | -18.06936 | 20168 ft | 352 kts | 287° |
| 2026-05-06 09:48 | 63.72184 | -18.12268 | 20173 ft | 353 kts | 287° |
| 2026-05-06 09:49 | 63.72770 | -18.17631 | 20179 ft | 354 kts | 287° |
| 2026-05-06 09:49 | 63.73357 | -18.23028 | 20173 ft | 353 kts | 287° |
| 2026-05-06 09:49 | 63.73935 | -18.28370 | 20170 ft | 352 kts | 287° |
| 2026-05-06 09:49 | 63.74511 | -18.33719 | 20161 ft | 352 kts | 287° |
| 2026-05-06 09:50 | 63.75086 | -18.39064 | 20166 ft | 353 kts | 287° |
| 2026-05-06 09:50 | 63.75664 | -18.44462 | 20160 ft | 353 kts | 287° |
| 2026-05-06 09:50 | 63.76237 | -18.49841 | 20166 ft | 354 kts | 287° |
| 2026-05-06 09:50 | 63.76810 | -18.55233 | 20158 ft | 353 kts | 287° |
| 2026-05-06 09:51 | 63.77379 | -18.60608 | 20170 ft | 354 kts | 287° |
| 2026-05-06 09:51 | 63.77952 | -18.66047 | 20142 ft | 355 kts | 286° |
| 2026-05-06 09:51 | 63.78519 | -18.71448 | 20142 ft | 355 kts | 286° |
| 2026-05-06 09:51 | 63.79079 | -18.76810 | 20131 ft | 354 kts | 286° |
| 2026-05-06 09:52 | 63.79642 | -18.82215 | 20115 ft | 354 kts | 286° |
| 2026-05-06 09:52 | 63.80204 | -18.87634 | 20089 ft | 355 kts | 286° |
| 2026-05-06 09:52 | 63.80765 | -18.93066 | 20072 ft | 355 kts | 286° |
| 2026-05-06 09:52 | 63.81325 | -18.98513 | 20045 ft | 355 kts | 286° |
| 2026-05-06 09:53 | 63.81881 | -19.03939 | 20035 ft | 355 kts | 286° |
| 2026-05-06 09:53 | 63.82435 | -19.09358 | 20036 ft | 355 kts | 286° |
| 2026-05-06 09:53 | 63.82990 | -19.14818 | 20042 ft | 356 kts | 286° |
| 2026-05-06 09:53 | 63.83542 | -19.20275 | 20042 ft | 357 kts | 286° |
| 2026-05-06 09:54 | 63.84086 | -19.25671 | 20036 ft | 357 kts | 286° |
| 2026-05-06 09:54 | 63.84640 | -19.31196 | 20036 ft | 357 kts | 286° |
| 2026-05-06 09:54 | 63.85187 | -19.36668 | 20052 ft | 358 kts | 286° |
| 2026-05-06 09:54 | 63.85728 | -19.42100 | 20074 ft | 359 kts | 286° |
| 2026-05-06 09:55 | 63.86274 | -19.47607 | 20085 ft | 360 kts | 286° |
| 2026-05-06 09:55 | 63.86821 | -19.53149 | 20093 ft | 360 kts | 286° |
| 2026-05-06 09:55 | 63.87363 | -19.58662 | 20090 ft | 359 kts | 286° |
| 2026-05-06 09:55 | 63.87902 | -19.64181 | 20091 ft | 360 kts | 286° |
| 2026-05-06 09:56 | 63.88439 | -19.69686 | 20089 ft | 359 kts | 285° |
| 2026-05-06 09:56 | 63.88975 | -19.75215 | 20082 ft | 359 kts | 285° |
| 2026-05-06 09:56 | 63.89509 | -19.80738 | 20093 ft | 360 kts | 285° |
| 2026-05-06 09:56 | 63.90042 | -19.86278 | 20108 ft | 360 kts | 285° |
| 2026-05-06 09:57 | 63.90574 | -19.91831 | 20130 ft | 360 kts | 285° |
| 2026-05-06 09:57 | 63.91103 | -19.97379 | 20154 ft | 360 kts | 285° |
| 2026-05-06 09:57 | 63.91632 | -20.02945 | 20187 ft | 361 kts | 285° |
| 2026-05-06 09:57 | 63.92155 | -20.08477 | 20191 ft | 362 kts | 285° |
| 2026-05-06 09:58 | 63.92681 | -20.14060 | 20194 ft | 363 kts | 285° |
| 2026-05-06 09:58 | 63.93206 | -20.19669 | 20194 ft | 363 kts | 285° |
| 2026-05-06 09:58 | 63.93726 | -20.25240 | 20200 ft | 363 kts | 285° |
| 2026-05-06 09:58 | 63.94246 | -20.30855 | 20200 ft | 362 kts | 285° |
| 2026-05-06 09:59 | 63.94501 | -20.36534 | 19984 ft | 365 kts | 271° |
| 2026-05-06 09:59 | 63.94180 | -20.42253 | 19289 ft | 371 kts | 263° |
| 2026-05-06 09:59 | 63.93742 | -20.47986 | 18742 ft | 366 kts | 262° |
| 2026-05-06 09:59 | 63.93310 | -20.53588 | 18283 ft | 359 kts | 262° |
| 2026-05-06 10:00 | 63.92887 | -20.59099 | 17833 ft | 353 kts | 262° |
| 2026-05-06 10:00 | 63.92469 | -20.64584 | 17380 ft | 348 kts | 262° |
| 2026-05-06 10:00 | 63.92065 | -20.69914 | 16946 ft | 345 kts | 262° |
| 2026-05-06 10:00 | 63.91665 | -20.75231 | 16505 ft | 346 kts | 262° |
| 2026-05-06 10:01 | 63.91258 | -20.80629 | 16059 ft | 347 kts | 262° |
| 2026-05-06 10:01 | 63.90849 | -20.86025 | 15608 ft | 347 kts | 262° |
| 2026-05-06 10:01 | 63.90439 | -20.91422 | 15166 ft | 347 kts | 262° |
| 2026-05-06 10:01 | 63.90028 | -20.96811 | 14706 ft | 347 kts | 262° |
| 2026-05-06 10:02 | 63.89616 | -21.02178 | 14253 ft | 346 kts | 262° |
| 2026-05-06 10:02 | 63.89203 | -21.07537 | 13813 ft | 345 kts | 262° |
| 2026-05-06 10:02 | 63.88793 | -21.12838 | 13374 ft | 344 kts | 262° |
| 2026-05-06 10:02 | 63.88380 | -21.18143 | 12844 ft | 341 kts | 262° |
| 2026-05-06 10:03 | 63.87964 | -21.23413 | 12034 ft | 336 kts | 262° |
| 2026-05-06 10:03 | 63.87563 | -21.28489 | 11272 ft | 331 kts | 262° |
| 2026-05-06 10:03 | 63.87161 | -21.33558 | 10578 ft | 323 kts | 262° |
| 2026-05-06 10:03 | 63.86772 | -21.38446 | 10207 ft | 306 kts | 262° |
| 2026-05-06 10:04 | 63.86406 | -21.43024 | 9929 ft | 289 kts | 262° |
| 2026-05-06 10:04 | 63.86055 | -21.47453 | 9701 ft | 286 kts | 263° |
| 2026-05-06 10:04 | 63.85696 | -21.51898 | 9476 ft | 286 kts | 262° |
| 2026-05-06 10:04 | 63.85334 | -21.56362 | 9232 ft | 291 kts | 262° |
| 2026-05-06 10:05 | 63.84982 | -21.60830 | 8978 ft | 290 kts | 262° |
| 2026-05-06 10:05 | 63.84624 | -21.65325 | 8739 ft | 288 kts | 261° |
| 2026-05-06 10:05 | 63.84269 | -21.69738 | 8499 ft | 287 kts | 261° |
| 2026-05-06 10:05 | 63.83911 | -21.74152 | 8265 ft | 282 kts | 261° |
| 2026-05-06 10:06 | 63.83557 | -21.78434 | 8023 ft | 272 kts | 261° |
| 2026-05-06 10:06 | 63.83217 | -21.82605 | 7806 ft | 273 kts | 261° |
| 2026-05-06 10:06 | 63.82872 | -21.86828 | 7589 ft | 274 kts | 261° |
| 2026-05-06 10:06 | 63.82520 | -21.91106 | 7364 ft | 275 kts | 261° |
| 2026-05-06 10:07 | 63.82167 | -21.95369 | 7051 ft | 280 kts | 261° |
| 2026-05-06 10:07 | 63.81809 | -21.99653 | 6676 ft | 275 kts | 261° |
| 2026-05-06 10:07 | 63.81455 | -22.03821 | 6399 ft | 266 kts | 261° |
| 2026-05-06 10:07 | 63.81113 | -22.07877 | 6178 ft | 261 kts | 261° |
| 2026-05-06 10:08 | 63.80676 | -22.11822 | 5955 ft | 258 kts | 253° |
| 2026-05-06 10:08 | 63.80106 | -22.15645 | 5740 ft | 254 kts | 252° |
| 2026-05-06 10:08 | 63.79538 | -22.19372 | 5530 ft | 250 kts | 252° |
| 2026-05-06 10:08 | 63.78971 | -22.23096 | 5324 ft | 249 kts | 252° |
| 2026-05-06 10:09 | 63.78409 | -22.26802 | 5123 ft | 252 kts | 252° |
| 2026-05-06 10:09 | 63.77834 | -22.30588 | 4913 ft | 255 kts | 252° |
| 2026-05-06 10:09 | 63.77260 | -22.34360 | 4698 ft | 258 kts | 252° |
| 2026-05-06 10:09 | 63.76902 | -22.38345 | 4438 ft | 256 kts | 276° |
| 2026-05-06 10:10 | 63.77328 | -22.42110 | 4270 ft | 250 kts | 294° |
| 2026-05-06 10:10 | 63.77928 | -22.45826 | 4056 ft | 251 kts | 294° |
| 2026-05-06 10:10 | 63.78533 | -22.49523 | 3849 ft | 252 kts | 294° |
| 2026-05-06 10:10 | 63.79138 | -22.53246 | 3639 ft | 253 kts | 294° |
| 2026-05-06 10:11 | 63.79723 | -22.56968 | 3436 ft | 253 kts | 294° |
| 2026-05-06 10:11 | 63.80328 | -22.60668 | 3205 ft | 245 kts | 300° |
| 2026-05-06 10:11 | 63.81414 | -22.63369 | 2874 ft | 230 kts | 337° |
| 2026-05-06 10:11 | 63.82853 | -22.63824 | 2701 ft | 191 kts | 18° |
| 2026-05-06 10:12 | 63.83845 | -22.62198 | 2688 ft | 173 kts | 47° |
| 2026-05-06 10:12 | 63.84781 | -22.60518 | 2537 ft | 178 kts | 19° |
| 2026-05-06 10:12 | 63.86019 | -22.60498 | 2320 ft | 181 kts | 358° |
| 2026-05-06 10:12 | 63.87233 | -22.60662 | 2087 ft | 166 kts | 5° |
| 2026-05-06 10:13 | 63.88331 | -22.60623 | 1820 ft | 151 kts | 5° |
| 2026-05-06 10:13 | 63.89316 | -22.60620 | 1564 ft | 134 kts | 4° |
| 2026-05-06 10:13 | 63.90217 | -22.60606 | 1432 ft | 124 kts | 6° |
| 2026-05-06 10:13 | 63.91061 | -22.60581 | 1270 ft | 119 kts | 5° |
| 2026-05-06 10:14 | 63.91871 | -22.60571 | 1091 ft | 116 kts | 7° |
| 2026-05-06 10:14 | 63.92690 | -22.60546 | 954 ft | 120 kts | 7° |
| 2026-05-06 10:14 | 63.93549 | -22.60543 | 782 ft | 126 kts | 2° |
| 2026-05-06 10:14 | 63.94431 | -22.60546 | 599 ft | 129 kts | 2° |
| 2026-05-06 10:15 | 63.95344 | -22.60545 | 413 ft | 132 kts | 7° |
| 2026-05-06 10:15 | 63.96241 | -22.60558 | 203 ft | 124 kts | 4° |
| 2026-05-06 10:15 | 63.97021 | -22.60546 | 143 ft | 91 kts | 360° |
| 2026-05-06 10:15 | 63.97483 | -22.60550 | 155 ft | 50 kts | 2° |
| 2026-05-06 10:16 | 63.97782 | -22.60552 | 161 ft | 36 kts | 360° |
| 2026-05-06 10:16 | 63.97990 | -22.60561 | 164 ft | 24 kts | 354° |
| 2026-05-06 10:16 | 63.98140 | -22.60659 | 162 ft | 20 kts | 337° |
| 2026-05-06 10:16 | 63.98244 | -22.60787 | 158 ft | 10 kts | 327° |
| 2026-05-06 10:17 | 63.98322 | -22.60913 | 156 ft | 15 kts | 323° |